Map

Track Data

SID SEASON NUMBER BASIN SUBBASIN NAME ISO_TIME NATURE LAT LON WMO_WIND WMO_PRES WMO_AGENCY TRACK_TYPE DIST2LAND LANDFALL IFLAG USA_AGENCY USA_ATCF_ID USA_LAT USA_LON USA_RECORD USA_STATUS USA_WIND USA_PRES USA_SSHS USA_R34_NE USA_R34_SE USA_R34_SW USA_R34_NW USA_R50_NE USA_R50_SE USA_R50_SW USA_R50_NW USA_R64_NE USA_R64_SE USA_R64_SW USA_R64_NW USA_POCI USA_ROCI USA_RMW USA_EYE TOKYO_LAT TOKYO_LON TOKYO_GRADE TOKYO_WIND TOKYO_PRES TOKYO_R50_DIR TOKYO_R50_LONG TOKYO_R50_SHORT TOKYO_R30_DIR TOKYO_R30_LONG TOKYO_R30_SHORT TOKYO_LAND CMA_LAT CMA_LON CMA_CAT CMA_WIND CMA_PRES HKO_LAT HKO_LON HKO_CAT HKO_WIND HKO_PRES NEWDELHI_LAT NEWDELHI_LON NEWDELHI_GRADE NEWDELHI_WIND NEWDELHI_PRES NEWDELHI_CI NEWDELHI_DP NEWDELHI_POCI REUNION_LAT REUNION_LON REUNION_TYPE REUNION_WIND REUNION_PRES REUNION_TNUM REUNION_CI REUNION_RMW REUNION_R34_NE REUNION_R34_SE REUNION_R34_SW REUNION_R34_NW REUNION_R50_NE REUNION_R50_SE REUNION_R50_SW REUNION_R50_NW REUNION_R64_NE REUNION_R64_SE REUNION_R64_SW REUNION_R64_NW BOM_LAT BOM_LON BOM_TYPE BOM_WIND BOM_PRES BOM_TNUM BOM_CI BOM_RMW BOM_R34_NE BOM_R34_SE BOM_R34_SW BOM_R34_NW BOM_R50_NE BOM_R50_SE BOM_R50_SW BOM_R50_NW BOM_R64_NE BOM_R64_SE BOM_R64_SW BOM_R64_NW BOM_ROCI BOM_POCI BOM_EYE BOM_POS_METHOD BOM_PRES_METHOD NADI_LAT NADI_LON NADI_CAT NADI_WIND NADI_PRES WELLINGTON_LAT WELLINGTON_LON WELLINGTON_WIND WELLINGTON_PRES DS824_LAT DS824_LON DS824_STAGE DS824_WIND DS824_PRES TD9636_LAT TD9636_LON TD9636_STAGE TD9636_WIND TD9636_PRES TD9635_LAT TD9635_LON TD9635_WIND TD9635_PRES TD9635_ROCI NEUMANN_LAT NEUMANN_LON NEUMANN_CLASS NEUMANN_WIND NEUMANN_PRES MLC_LAT MLC_LON MLC_CLASS MLC_WIND MLC_PRES USA_GUST BOM_GUST BOM_GUST_PER REUNION_GUST REUNION_GUST_PER USA_SEAHGT USA_SEARAD_NE USA_SEARAD_SE USA_SEARAD_SW USA_SEARAD_NW STORM_SPEED STORM_DIR
1882257N18087 1882 30 NI BB NOT_NAMED 1882-09-14 00:00:00 TS 18.2000 86.7000 main 200 197 _________O____ -1 18.2000 86.7000 TC 30 2 287
1882257N18087 1882 30 NI BB NOT_NAMED 1882-09-14 03:00:00 TS 18.2334 86.5917 main 197 183 _________PO___ -1 18.2500 86.5375 TC 30 18.2000 86.7000 1 2 290
1882257N18087 1882 30 NI BB NOT_NAMED 1882-09-14 06:00:00 TS 18.2788 86.4731 main 183 179 _________OP___ -1 18.3000 86.4000 TC 30 18.2469 86.5828 1 2 294
1882257N18087 1882 30 NI BB NOT_NAMED 1882-09-14 09:00:00 TS 18.3264 86.3696 main 179 164 _________PP___ -1 18.3500 86.3000 TC 30 18.2950 86.4625 1 2 296
1882257N18087 1882 30 NI BB NOT_NAMED 1882-09-14 12:00:00 TS 18.3728 86.2680 main 164 153 _________OP___ -1 18.4000 86.2000 TC 30 18.3456 86.3359 1 3 293
1882257N18087 1882 30 NI BB NOT_NAMED 1882-09-14 15:00:00 TS 18.4250 86.1250 main 153 138 _________PO___ -1 18.4500 86.0500 TC 30 18.4000 86.2000 1 3 291
1882257N18087 1882 30 NI BB NOT_NAMED 1882-09-14 18:00:00 TS 18.4791 85.9774 main 138 133 _________OP___ -1 18.5000 85.9000 TC 30 18.4582 86.0547 1 3 293
1882257N18087 1882 30 NI BB NOT_NAMED 1882-09-14 21:00:00 TS 18.5363 85.8450 main 128 113 _________PP___ -1 18.5575 85.7775 TC 30 18.5151 85.9126 1 2 295
1882257N18087 1882 30 NI BB NOT_NAMED 1882-09-15 00:00:00 TS 18.5822 85.7446 main 113 113 _________OP___ -1 18.6000 85.7000 TC 30 18.5644 85.7891 1 2 295
1882257N18087 1882 30 NI BB NOT_NAMED 1882-09-15 03:00:00 TS 18.6037 85.6925 main 113 113 _________PO___ -1 18.6075 85.6850 TC 30 18.6000 85.7000 1 1 296
1882257N18087 1882 30 NI BB NOT_NAMED 1882-09-15 06:00:00 TS 18.6072 85.6820 main 113 113 _________OP___ -1 18.6000 85.7000 TC 30 18.6143 85.6640 1 0 0
1882257N18087 1882 30 NI BB NOT_NAMED 1882-09-15 09:00:00 TS 18.6075 85.6812 main 113 113 _________PP___ -1 18.6000 85.7000 TC 30 18.6149 85.6625 1 0 0
1882257N18087 1882 30 NI BB NOT_NAMED 1882-09-15 12:00:00 TS 18.6040 85.6898 main 113 113 _________OP___ -1 18.6000 85.7000 TC 30 18.6081 85.6797 1 0 0
1882257N18087 1882 30 NI BB NOT_NAMED 1882-09-15 15:00:00 TS 18.6000 85.7000 main 113 113 _________PO___ -1 18.6000 85.7000 TC 30 18.6000 85.7000 1 0 136
1882257N18087 1882 30 NI BB NOT_NAMED 1882-09-15 18:00:00 TS 18.5756 85.7141 main 113 113 _________OP___ -1 18.6000 85.7000 TC 30 18.5512 85.7282 1 1 144
1882257N18087 1882 30 NI BB NOT_NAMED 1882-09-15 21:00:00 TS 18.5362 85.7373 main 119 113 _________PP___ -1 18.5625 85.7224 TC 30 18.5099 85.7521 1 0 0
1882257N18087 1882 30 NI BB NOT_NAMED 1882-09-16 00:00:00 TS 18.5568 85.7250 main 113 98 _________OP___ -1 18.6000 85.7000 TC 30 18.5137 85.7499 1 2 331
1882257N18087 1882 30 NI BB NOT_NAMED 1882-09-16 03:00:00 TS 18.6988 85.6400 main 98 74 _________PO___ -1 18.7975 85.5800 TC 30 18.6000 85.7000 1 5 330
1882257N18087 1882 30 NI BB NOT_NAMED 1882-09-16 06:00:00 TS 18.9529 85.4838 main 64 35 _________OP___ -1 19.1000 85.4000 TC 30 18.8058 85.5675 1 7 330
1882257N18087 1882 30 NI BB NOT_NAMED 1882-09-16 09:00:00 TS 19.2651 85.2940 main 24 0 _________PP___ -1 19.4350 85.2001 TC 30 19.0952 85.3880 1 8 331
1882257N18087 1882 30 NI BB NOT_NAMED 1882-09-16 12:00:00 TS 19.6185 85.0947 main 0 0 _________OP___ -1 19.8000 85.0000 TC 30 19.4370 85.1894 1 8 333
1882257N18087 1882 30 NI BB NOT_NAMED 1882-09-16 15:00:00 TS 19.9750 84.9175 main 0 0 _________PO___ -1 20.1500 84.8349 TC 30 19.8000 85.0000 1 8 337
1882257N18087 1882 30 NI BB NOT_NAMED 1882-09-16 18:00:00 TS 20.3049 84.7811 main 0 0 _________OP___ -1 20.5000 84.7000 TC 30 20.1586 84.8420 1 7 340
1882257N18087 1882 30 NI BB NOT_NAMED 1882-09-16 21:00:00 TS 20.6459 84.6645 main 0 0 _________PP___ -1 20.8500 84.5926 TC 30 20.5098 84.7124 1 7 344
1882257N18087 1882 30 NI BB NOT_NAMED 1882-09-17 00:00:00 TS 20.9708 84.5677 main 0 0 _________OP___ -1 21.2000 84.5000 TC 30 20.8562 84.6016 1 6 345
1882257N18087 1882 30 NI BB NOT_NAMED 1882-09-17 03:00:00 NR 21.2000 84.5000 main 0 __________O___ -1 TC 21.2000 84.5000 1 5 342

About IBTrACS Database

This database is a web-friendly format of International Best Track Archive for Climate Stewardship (IBTrACS), a global best track data archive curated by NOAA dating back to 1842.

Updated: 2021-11-26